sensor_id;sensor_type;location;lat;lon;timestamp;P1;durP1;ratioP1;P2;durP2;ratioP2
39022;SDS011;25908;51.984;5.928;2023-04-01T00:00:46;7.28;;;2.20;;
39022;SDS011;25908;51.984;5.928;2023-04-01T00:03:12;4.50;;;1.80;;
39022;SDS011;25908;51.984;5.928;2023-04-01T00:05:38;6.90;;;2.33;;
39022;SDS011;25908;51.984;5.928;2023-04-01T00:08:03;4.97;;;1.90;;
39022;SDS011;25908;51.984;5.928;2023-04-01T00:10:29;6.22;;;2.30;;
39022;SDS011;25908;51.984;5.928;2023-04-01T00:12:55;6.20;;;2.58;;
39022;SDS011;25908;51.984;5.928;2023-04-01T00:15:21;5.72;;;2.38;;
39022;SDS011;25908;51.984;5.928;2023-04-01T00:17:46;8.73;;;3.85;;
39022;SDS011;25908;51.984;5.928;2023-04-01T00:20:12;7.38;;;3.60;;
39022;SDS011;25908;51.984;5.928;2023-04-01T00:22:39;7.10;;;3.00;;
39022;SDS011;25908;51.984;5.928;2023-04-01T00:25:05;4.32;;;2.10;;
39022;SDS011;25908;51.984;5.928;2023-04-01T00:27:31;8.57;;;3.97;;
39022;SDS011;25908;51.984;5.928;2023-04-01T00:29:57;7.93;;;3.80;;
39022;SDS011;25908;51.984;5.928;2023-04-01T00:32:23;8.30;;;4.07;;
39022;SDS011;25908;51.984;5.928;2023-04-01T00:34:51;13.75;;;6.00;;
39022;SDS011;25908;51.984;5.928;2023-04-01T00:37:18;8.25;;;3.22;;
39022;SDS011;25908;51.984;5.928;2023-04-01T00:39:44;5.60;;;2.67;;
39022;SDS011;25908;51.984;5.928;2023-04-01T00:42:11;8.30;;;3.92;;
39022;SDS011;25908;51.984;5.928;2023-04-01T00:44:37;6.05;;;3.38;;
39022;SDS011;25908;51.984;5.928;2023-04-01T00:47:03;8.80;;;3.65;;
39022;SDS011;25908;51.984;5.928;2023-04-01T00:49:30;6.57;;;3.53;;
39022;SDS011;25908;51.984;5.928;2023-04-01T00:52:09;6.90;;;3.90;;
39022;SDS011;25908;51.984;5.928;2023-04-01T00:54:37;8.88;;;3.88;;
39022;SDS011;25908;51.984;5.928;2023-04-01T00:57:11;8.77;;;4.30;;
39022;SDS011;25908;51.984;5.928;2023-04-01T00:59:46;7.68;;;4.43;;
39022;SDS011;25908;51.984;5.928;2023-04-01T01:02:14;9.38;;;5.03;;
39022;SDS011;25908;51.984;5.928;2023-04-01T01:04:42;7.10;;;4.43;;
39022;SDS011;25908;51.984;5.928;2023-04-01T01:12:39;7.93;;;5.18;;
39022;SDS011;25908;51.984;5.928;2023-04-01T01:17:56;9.95;;;6.60;;
39022;SDS011;25908;51.984;5.928;2023-04-01T01:20:30;10.60;;;6.90;;
39022;SDS011;25908;51.984;5.928;2023-04-01T01:31:50;9.52;;;6.78;;
39022;SDS011;25908;51.984;5.928;2023-04-01T01:34:32;8.43;;;7.47;;
39022;SDS011;25908;51.984;5.928;2023-04-01T01:37:20;12.95;;;8.88;;
39022;SDS011;25908;51.984;5.928;2023-04-01T01:39:51;12.52;;;10.13;;
39022;SDS011;25908;51.984;5.928;2023-04-01T01:42:20;12.60;;;9.23;;
39022;SDS011;25908;51.984;5.928;2023-04-01T01:44:47;11.90;;;9.18;;
39022;SDS011;25908;51.984;5.928;2023-04-01T01:47:15;12.80;;;9.45;;
39022;SDS011;25908;51.984;5.928;2023-04-01T01:49:41;14.57;;;9.95;;
39022;SDS011;25908;51.984;5.928;2023-04-01T01:52:09;12.48;;;9.25;;
39022;SDS011;25908;51.984;5.928;2023-04-01T01:54:35;11.55;;;8.85;;
39022;SDS011;25908;51.984;5.928;2023-04-01T01:57:07;11.00;;;8.95;;
39022;SDS011;25908;51.984;5.928;2023-04-01T01:59:35;13.50;;;9.07;;
39022;SDS011;25908;51.984;5.928;2023-04-01T02:02:04;10.38;;;7.75;;
39022;SDS011;25908;51.984;5.928;2023-04-01T02:04:37;11.63;;;8.55;;
39022;SDS011;25908;51.984;5.928;2023-04-01T02:07:07;12.20;;;6.93;;
39022;SDS011;25908;51.984;5.928;2023-04-01T02:09:37;9.95;;;7.05;;
39022;SDS011;25908;51.984;5.928;2023-04-01T02:12:04;9.43;;;6.50;;
39022;SDS011;25908;51.984;5.928;2023-04-01T02:14:38;14.93;;;6.43;;
39022;SDS011;25908;51.984;5.928;2023-04-01T02:17:23;11.93;;;6.47;;
39022;SDS011;25908;51.984;5.928;2023-04-01T02:19:56;10.82;;;6.10;;
39022;SDS011;25908;51.984;5.928;2023-04-01T02:22:45;11.90;;;5.57;;
39022;SDS011;25908;51.984;5.928;2023-04-01T02:25:16;10.30;;;4.43;;
39022;SDS011;25908;51.984;5.928;2023-04-01T02:27:45;11.48;;;5.28;;
39022;SDS011;25908;51.984;5.928;2023-04-01T02:30:12;9.80;;;3.97;;
39022;SDS011;25908;51.984;5.928;2023-04-01T02:32:40;11.52;;;4.60;;
39022;SDS011;25908;51.984;5.928;2023-04-01T02:35:07;8.15;;;4.53;;
39022;SDS011;25908;51.984;5.928;2023-04-01T02:37:35;9.52;;;4.80;;
39022;SDS011;25908;51.984;5.928;2023-04-01T02:40:02;9.50;;;5.00;;
39022;SDS011;25908;51.984;5.928;2023-04-01T02:42:31;14.25;;;5.10;;
39022;SDS011;25908;51.984;5.928;2023-04-01T02:44:57;10.45;;;4.68;;
39022;SDS011;25908;51.984;5.928;2023-04-01T02:47:22;10.25;;;4.50;;
39022;SDS011;25908;51.984;5.928;2023-04-01T02:49:48;10.48;;;4.63;;
39022;SDS011;25908;51.984;5.928;2023-04-01T02:52:14;10.73;;;4.68;;
39022;SDS011;25908;51.984;5.928;2023-04-01T02:54:39;12.38;;;4.78;;
39022;SDS011;25908;51.984;5.928;2023-04-01T02:57:05;11.98;;;4.55;;
39022;SDS011;25908;51.984;5.928;2023-04-01T02:59:31;10.27;;;4.13;;
39022;SDS011;25908;51.984;5.928;2023-04-01T03:01:56;10.25;;;4.32;;
39022;SDS011;25908;51.984;5.928;2023-04-01T03:04:22;6.35;;;4.13;;
39022;SDS011;25908;51.984;5.928;2023-04-01T03:06:48;7.53;;;4.03;;
39022;SDS011;25908;51.984;5.928;2023-04-01T03:09:13;8.48;;;4.20;;
39022;SDS011;25908;51.984;5.928;2023-04-01T03:11:39;10.45;;;3.88;;
39022;SDS011;25908;51.984;5.928;2023-04-01T03:14:05;5.18;;;3.53;;
39022;SDS011;25908;51.984;5.928;2023-04-01T03:16:32;7.18;;;5.13;;
39022;SDS011;25908;51.984;5.928;2023-04-01T03:18:57;5.35;;;3.30;;
39022;SDS011;25908;51.984;5.928;2023-04-01T03:21:24;5.88;;;3.58;;
39022;SDS011;25908;51.984;5.928;2023-04-01T03:23:50;5.90;;;3.40;;
39022;SDS011;25908;51.984;5.928;2023-04-01T03:26:16;5.55;;;3.80;;
39022;SDS011;25908;51.984;5.928;2023-04-01T03:28:43;5.47;;;3.80;;
39022;SDS011;25908;51.984;5.928;2023-04-01T03:31:09;6.35;;;4.18;;
39022;SDS011;25908;51.984;5.928;2023-04-01T03:33:35;6.30;;;3.58;;
39022;SDS011;25908;51.984;5.928;2023-04-01T03:36:01;5.20;;;3.70;;
39022;SDS011;25908;51.984;5.928;2023-04-01T03:38:31;6.10;;;3.95;;
39022;SDS011;25908;51.984;5.928;2023-04-01T03:40:57;6.05;;;3.63;;
39022;SDS011;25908;51.984;5.928;2023-04-01T03:43:23;8.48;;;4.57;;
39022;SDS011;25908;51.984;5.928;2023-04-01T03:45:50;5.82;;;4.20;;
39022;SDS011;25908;51.984;5.928;2023-04-01T03:48:16;6.22;;;4.07;;
39022;SDS011;25908;51.984;5.928;2023-04-01T03:50:42;5.25;;;4.05;;
39022;SDS011;25908;51.984;5.928;2023-04-01T03:53:08;6.13;;;4.00;;
39022;SDS011;25908;51.984;5.928;2023-04-01T03:55:37;5.10;;;3.58;;
39022;SDS011;25908;51.984;5.928;2023-04-01T03:58:05;5.55;;;4.25;;
39022;SDS011;25908;51.984;5.928;2023-04-01T04:00:31;4.70;;;3.72;;
39022;SDS011;25908;51.984;5.928;2023-04-01T04:02:57;5.80;;;4.30;;
39022;SDS011;25908;51.984;5.928;2023-04-01T04:05:23;6.45;;;4.90;;
39022;SDS011;25908;51.984;5.928;2023-04-01T04:07:50;6.35;;;4.45;;
39022;SDS011;25908;51.984;5.928;2023-04-01T04:10:17;6.20;;;4.68;;
39022;SDS011;25908;51.984;5.928;2023-04-01T04:12:43;7.72;;;4.45;;
39022;SDS011;25908;51.984;5.928;2023-04-01T04:15:09;6.35;;;4.43;;
39022;SDS011;25908;51.984;5.928;2023-04-01T04:17:35;6.25;;;4.40;;
39022;SDS011;25908;51.984;5.928;2023-04-01T04:20:01;6.88;;;5.03;;
39022;SDS011;25908;51.984;5.928;2023-04-01T04:22:27;6.05;;;4.68;;
39022;SDS011;25908;51.984;5.928;2023-04-01T04:24:52;5.40;;;4.30;;
39022;SDS011;25908;51.984;5.928;2023-04-01T04:27:18;6.38;;;4.95;;
39022;SDS011;25908;51.984;5.928;2023-04-01T04:29:44;7.65;;;5.10;;
39022;SDS011;25908;51.984;5.928;2023-04-01T04:32:09;7.03;;;5.75;;
39022;SDS011;25908;51.984;5.928;2023-04-01T04:34:35;6.82;;;5.05;;
39022;SDS011;25908;51.984;5.928;2023-04-01T04:37:01;9.10;;;5.85;;
39022;SDS011;25908;51.984;5.928;2023-04-01T04:39:26;9.15;;;6.38;;
39022;SDS011;25908;51.984;5.928;2023-04-01T04:41:52;8.38;;;6.80;;
39022;SDS011;25908;51.984;5.928;2023-04-01T04:44:18;8.13;;;6.13;;
39022;SDS011;25908;51.984;5.928;2023-04-01T04:46:43;8.05;;;7.15;;
39022;SDS011;25908;51.984;5.928;2023-04-01T04:49:09;8.63;;;6.22;;
39022;SDS011;25908;51.984;5.928;2023-04-01T04:51:35;9.15;;;7.10;;
39022;SDS011;25908;51.984;5.928;2023-04-01T04:54:03;7.68;;;6.70;;
39022;SDS011;25908;51.984;5.928;2023-04-01T04:56:30;10.23;;;7.03;;
39022;SDS011;25908;51.984;5.928;2023-04-01T04:58:56;7.93;;;6.55;;
39022;SDS011;25908;51.984;5.928;2023-04-01T05:01:22;8.80;;;6.88;;
39022;SDS011;25908;51.984;5.928;2023-04-01T05:03:47;9.80;;;7.13;;
39022;SDS011;25908;51.984;5.928;2023-04-01T05:06:13;8.55;;;6.13;;
39022;SDS011;25908;51.984;5.928;2023-04-01T05:08:41;7.35;;;6.20;;
39022;SDS011;25908;51.984;5.928;2023-04-01T05:11:09;9.80;;;6.75;;
39022;SDS011;25908;51.984;5.928;2023-04-01T05:13:38;8.77;;;6.53;;
39022;SDS011;25908;51.984;5.928;2023-04-01T05:16:03;9.18;;;6.75;;
39022;SDS011;25908;51.984;5.928;2023-04-01T05:18:34;10.65;;;6.75;;
39022;SDS011;25908;51.984;5.928;2023-04-01T05:20:59;8.43;;;7.00;;
39022;SDS011;25908;51.984;5.928;2023-04-01T05:23:25;9.88;;;7.50;;
39022;SDS011;25908;51.984;5.928;2023-04-01T05:25:51;9.23;;;6.85;;
39022;SDS011;25908;51.984;5.928;2023-04-01T05:28:18;10.55;;;8.38;;
39022;SDS011;25908;51.984;5.928;2023-04-01T05:30:44;9.02;;;7.38;;
39022;SDS011;25908;51.984;5.928;2023-04-01T05:33:11;8.65;;;7.18;;
39022;SDS011;25908;51.984;5.928;2023-04-01T05:35:38;10.10;;;8.05;;
39022;SDS011;25908;51.984;5.928;2023-04-01T05:38:03;9.38;;;7.82;;
39022;SDS011;25908;51.984;5.928;2023-04-01T05:40:29;9.15;;;7.47;;
39022;SDS011;25908;51.984;5.928;2023-04-01T05:42:55;9.75;;;7.43;;
39022;SDS011;25908;51.984;5.928;2023-04-01T05:45:21;9.60;;;7.85;;
39022;SDS011;25908;51.984;5.928;2023-04-01T05:47:47;9.20;;;7.72;;
39022;SDS011;25908;51.984;5.928;2023-04-01T05:50:12;9.70;;;7.82;;
39022;SDS011;25908;51.984;5.928;2023-04-01T05:52:38;8.23;;;6.15;;
39022;SDS011;25908;51.984;5.928;2023-04-01T05:55:04;7.75;;;5.60;;
39022;SDS011;25908;51.984;5.928;2023-04-01T05:57:30;6.93;;;4.78;;
39022;SDS011;25908;51.984;5.928;2023-04-01T05:59:56;6.25;;;4.68;;
39022;SDS011;25908;51.984;5.928;2023-04-01T06:02:21;5.47;;;4.35;;
39022;SDS011;25908;51.984;5.928;2023-04-01T06:04:47;6.70;;;4.88;;
39022;SDS011;25908;51.984;5.928;2023-04-01T06:07:16;6.38;;;4.45;;
39022;SDS011;25908;51.984;5.928;2023-04-01T06:09:43;7.25;;;4.95;;
39022;SDS011;25908;51.984;5.928;2023-04-01T06:17:27;9.70;;;6.20;;
39022;SDS011;25908;51.984;5.928;2023-04-01T06:20:26;10.10;;;5.90;;
39022;SDS011;25908;51.984;5.928;2023-04-01T06:29:25;10.73;;;6.50;;
39022;SDS011;25908;51.984;5.928;2023-04-01T06:31:59;14.93;;;7.88;;
39022;SDS011;25908;51.984;5.928;2023-04-01T06:34:44;13.20;;;8.27;;
39022;SDS011;25908;51.984;5.928;2023-04-01T06:37:16;16.13;;;8.20;;
39022;SDS011;25908;51.984;5.928;2023-04-01T06:42:50;15.30;;;8.07;;
39022;SDS011;25908;51.984;5.928;2023-04-01T06:48:33;15.85;;;9.40;;
39022;SDS011;25908;51.984;5.928;2023-04-01T06:54:04;15.40;;;7.97;;
39022;SDS011;25908;51.984;5.928;2023-04-01T06:56:37;13.20;;;8.05;;
39022;SDS011;25908;51.984;5.928;2023-04-01T06:59:17;12.35;;;7.47;;
39022;SDS011;25908;51.984;5.928;2023-04-01T07:02:00;11.68;;;7.00;;
39022;SDS011;25908;51.984;5.928;2023-04-01T07:04:40;10.80;;;6.10;;
39022;SDS011;25908;51.984;5.928;2023-04-01T07:07:16;9.30;;;5.45;;
39022;SDS011;25908;51.984;5.928;2023-04-01T07:09:48;10.35;;;5.57;;
39022;SDS011;25908;51.984;5.928;2023-04-01T07:12:28;8.32;;;5.32;;
39022;SDS011;25908;51.984;5.928;2023-04-01T07:15:01;9.00;;;5.05;;
39022;SDS011;25908;51.984;5.928;2023-04-01T07:17:36;8.38;;;4.07;;
39022;SDS011;25908;51.984;5.928;2023-04-01T07:25:38;7.15;;;4.13;;
39022;SDS011;25908;51.984;5.928;2023-04-01T07:28:03;5.70;;;3.75;;
39022;SDS011;25908;51.984;5.928;2023-04-01T07:33:20;5.68;;;3.17;;
39022;SDS011;25908;51.984;5.928;2023-04-01T07:35:52;4.63;;;2.65;;
39022;SDS011;25908;51.984;5.928;2023-04-01T07:41:40;4.22;;;2.30;;
39022;SDS011;25908;51.984;5.928;2023-04-01T07:44:32;3.58;;;2.10;;
39022;SDS011;25908;51.984;5.928;2023-04-01T07:47:12;4.28;;;2.33;;
39022;SDS011;25908;51.984;5.928;2023-04-01T07:55:01;3.85;;;2.10;;
39022;SDS011;25908;51.984;5.928;2023-04-01T08:03:02;2.88;;;1.70;;
39022;SDS011;25908;51.984;5.928;2023-04-01T08:08:16;2.95;;;1.65;;
39022;SDS011;25908;51.984;5.928;2023-04-01T08:23:54;4.43;;;2.30;;
39022;SDS011;25908;51.984;5.928;2023-04-01T08:26:37;4.03;;;2.38;;
39022;SDS011;25908;51.984;5.928;2023-04-01T08:29:12;3.03;;;1.67;;
39022;SDS011;25908;51.984;5.928;2023-04-01T08:34:47;2.97;;;1.73;;
39022;SDS011;25908;51.984;5.928;2023-04-01T08:37:24;2.22;;;1.33;;
39022;SDS011;25908;51.984;5.928;2023-04-01T08:39:58;3.20;;;1.60;;
39022;SDS011;25908;51.984;5.928;2023-04-01T08:43:05;2.22;;;1.35;;
39022;SDS011;25908;51.984;5.928;2023-04-01T08:45:56;6.30;;;2.63;;
39022;SDS011;25908;51.984;5.928;2023-04-01T08:51:20;2.47;;;1.50;;
39022;SDS011;25908;51.984;5.928;2023-04-01T08:54:02;2.65;;;1.00;;
39022;SDS011;25908;51.984;5.928;2023-04-01T08:56:46;1.00;;;0.70;;
39022;SDS011;25908;51.984;5.928;2023-04-01T08:59:42;0.52;;;0.40;;
39022;SDS011;25908;51.984;5.928;2023-04-01T09:13:37;1.65;;;0.52;;
39022;SDS011;25908;51.984;5.928;2023-04-01T09:16:10;0.68;;;0.40;;
39022;SDS011;25908;51.984;5.928;2023-04-01T09:24:33;0.88;;;0.52;;
39022;SDS011;25908;51.984;5.928;2023-04-01T09:27:10;1.42;;;0.60;;
39022;SDS011;25908;51.984;5.928;2023-04-01T09:41:24;1.55;;;1.02;;
39022;SDS011;25908;51.984;5.928;2023-04-01T09:44:05;1.17;;;0.90;;
39022;SDS011;25908;51.984;5.928;2023-04-01T09:55:06;2.05;;;1.00;;
39022;SDS011;25908;51.984;5.928;2023-04-01T10:05:35;1.83;;;1.20;;
39022;SDS011;25908;51.984;5.928;2023-04-01T10:11:36;3.50;;;1.10;;
39022;SDS011;25908;51.984;5.928;2023-04-01T10:25:27;4.20;;;1.90;;
39022;SDS011;25908;51.984;5.928;2023-04-01T10:33:38;3.55;;;2.50;;
39022;SDS011;25908;51.984;5.928;2023-04-01T10:45:02;5.70;;;3.15;;
39022;SDS011;25908;51.984;5.928;2023-04-01T10:47:48;4.85;;;3.00;;
39022;SDS011;25908;51.984;5.928;2023-04-01T10:53:35;5.40;;;3.03;;
39022;SDS011;25908;51.984;5.928;2023-04-01T11:07:11;8.38;;;4.57;;
39022;SDS011;25908;51.984;5.928;2023-04-01T11:24:35;5.63;;;4.22;;
39022;SDS011;25908;51.984;5.928;2023-04-01T11:30:00;8.50;;;4.65;;
39022;SDS011;25908;51.984;5.928;2023-04-01T11:41:18;1.77;;;1.02;;
39022;SDS011;25908;51.984;5.928;2023-04-01T12:00:40;1.55;;;0.80;;
39022;SDS011;25908;51.984;5.928;2023-04-01T12:12:12;0.75;;;0.65;;
39022;SDS011;25908;51.984;5.928;2023-04-01T12:15:00;2.08;;;0.80;;
39022;SDS011;25908;51.984;5.928;2023-04-01T12:20:22;1.35;;;1.00;;
39022;SDS011;25908;51.984;5.928;2023-04-01T12:26:15;2.20;;;0.93;;
39022;SDS011;25908;51.984;5.928;2023-04-01T12:42:42;1.80;;;1.13;;
39022;SDS011;25908;51.984;5.928;2023-04-01T12:50:26;2.05;;;1.30;;
39022;SDS011;25908;51.984;5.928;2023-04-01T12:53:23;1.52;;;1.02;;
39022;SDS011;25908;51.984;5.928;2023-04-01T12:55:55;1.70;;;1.10;;
39022;SDS011;25908;51.984;5.928;2023-04-01T13:09:57;1.70;;;1.10;;
39022;SDS011;25908;51.984;5.928;2023-04-01T13:23:44;1.30;;;0.93;;
39022;SDS011;25908;51.984;5.928;2023-04-01T13:26:41;1.10;;;0.82;;
39022;SDS011;25908;51.984;5.928;2023-04-01T13:29:28;1.35;;;1.05;;
39022;SDS011;25908;51.984;5.928;2023-04-01T13:32:05;2.05;;;1.00;;
39022;SDS011;25908;51.984;5.928;2023-04-01T13:34:51;2.13;;;1.08;;
39022;SDS011;25908;51.984;5.928;2023-04-01T13:42:57;1.85;;;1.00;;
39022;SDS011;25908;51.984;5.928;2023-04-01T13:56:47;0.90;;;0.50;;
39022;SDS011;25908;51.984;5.928;2023-04-01T14:05:27;0.60;;;0.40;;
39022;SDS011;25908;51.984;5.928;2023-04-01T14:19:23;1.77;;;1.00;;
39022;SDS011;25908;51.984;5.928;2023-04-01T14:24:42;1.63;;;1.20;;
39022;SDS011;25908;51.984;5.928;2023-04-01T14:27:38;3.45;;;1.52;;
39022;SDS011;25908;51.984;5.928;2023-04-01T14:30:15;2.10;;;1.50;;
39022;SDS011;25908;51.984;5.928;2023-04-01T14:35:56;2.38;;;1.20;;
39022;SDS011;25908;51.984;5.928;2023-04-01T14:54:46;1.88;;;0.80;;
39022;SDS011;25908;51.984;5.928;2023-04-01T14:57:15;1.17;;;0.70;;
39022;SDS011;25908;51.984;5.928;2023-04-01T14:59:53;1.30;;;0.80;;
39022;SDS011;25908;51.984;5.928;2023-04-01T15:02:33;1.65;;;0.85;;
39022;SDS011;25908;51.984;5.928;2023-04-01T15:13:58;4.15;;;2.97;;
39022;SDS011;25908;51.984;5.928;2023-04-01T15:28:10;5.72;;;3.75;;
39022;SDS011;25908;51.984;5.928;2023-04-01T15:42:21;4.28;;;2.88;;
39022;SDS011;25908;51.984;5.928;2023-04-01T15:44:51;3.95;;;3.00;;
39022;SDS011;25908;51.984;5.928;2023-04-01T15:49:56;3.85;;;2.75;;
39022;SDS011;25908;51.984;5.928;2023-04-01T15:55:37;3.70;;;2.85;;
39022;SDS011;25908;51.984;5.928;2023-04-01T16:09:17;5.63;;;3.70;;
39022;SDS011;25908;51.984;5.928;2023-04-01T16:11:53;5.40;;;4.20;;
39022;SDS011;25908;51.984;5.928;2023-04-01T16:17:30;4.30;;;3.28;;
39022;SDS011;25908;51.984;5.928;2023-04-01T16:20:20;3.85;;;3.13;;
39022;SDS011;25908;51.984;5.928;2023-04-01T16:28:10;5.15;;;3.90;;
39022;SDS011;25908;51.984;5.928;2023-04-01T16:31:13;4.33;;;3.37;;
39022;SDS011;25908;51.984;5.928;2023-04-01T16:33:57;4.72;;;3.05;;
39022;SDS011;25908;51.984;5.928;2023-04-01T16:36:39;3.97;;;3.00;;
39022;SDS011;25908;51.984;5.928;2023-04-01T16:39:27;3.42;;;2.85;;
39022;SDS011;25908;51.984;5.928;2023-04-01T16:42:11;4.10;;;2.85;;
39022;SDS011;25908;51.984;5.928;2023-04-01T16:44:54;4.68;;;2.83;;
39022;SDS011;25908;51.984;5.928;2023-04-01T16:47:30;5.18;;;3.15;;
39022;SDS011;25908;51.984;5.928;2023-04-01T16:50:24;3.72;;;3.10;;
39022;SDS011;25908;51.984;5.928;2023-04-01T16:55:24;4.55;;;3.53;;
39022;SDS011;25908;51.984;5.928;2023-04-01T17:03:51;3.60;;;2.88;;
39022;SDS011;25908;51.984;5.928;2023-04-01T17:12:37;5.13;;;3.42;;
39022;SDS011;25908;51.984;5.928;2023-04-01T17:15:17;4.35;;;3.83;;
39022;SDS011;25908;51.984;5.928;2023-04-01T17:20:35;5.40;;;4.43;;
39022;SDS011;25908;51.984;5.928;2023-04-01T17:25:52;4.80;;;3.72;;
39022;SDS011;25908;51.984;5.928;2023-04-01T17:36:33;4.85;;;3.65;;
39022;SDS011;25908;51.984;5.928;2023-04-01T17:39:44;4.70;;;3.65;;
39022;SDS011;25908;51.984;5.928;2023-04-01T17:42:22;4.40;;;3.50;;
39022;SDS011;25908;51.984;5.928;2023-04-01T17:47:49;5.20;;;4.10;;
39022;SDS011;25908;51.984;5.928;2023-04-01T17:50:35;5.50;;;4.63;;
39022;SDS011;25908;51.984;5.928;2023-04-01T17:53:31;6.70;;;4.22;;
39022;SDS011;25908;51.984;5.928;2023-04-01T17:59:10;8.48;;;6.47;;
39022;SDS011;25908;51.984;5.928;2023-04-01T18:01:43;6.82;;;5.18;;
39022;SDS011;25908;51.984;5.928;2023-04-01T18:23:55;6.18;;;4.78;;
39022;SDS011;25908;51.984;5.928;2023-04-01T18:26:31;6.22;;;4.82;;
39022;SDS011;25908;51.984;5.928;2023-04-01T18:29:13;5.38;;;4.72;;
39022;SDS011;25908;51.984;5.928;2023-04-01T18:34:49;6.50;;;4.90;;
39022;SDS011;25908;51.984;5.928;2023-04-01T18:37:25;5.13;;;4.40;;
39022;SDS011;25908;51.984;5.928;2023-04-01T18:40:11;7.25;;;6.55;;
39022;SDS011;25908;51.984;5.928;2023-04-01T18:46:25;6.93;;;6.22;;
39022;SDS011;25908;51.984;5.928;2023-04-01T18:48:51;6.57;;;5.88;;
39022;SDS011;25908;51.984;5.928;2023-04-01T18:57:13;6.30;;;5.70;;
39022;SDS011;25908;51.984;5.928;2023-04-01T18:59:42;6.55;;;5.88;;
39022;SDS011;25908;51.984;5.928;2023-04-01T19:02:28;7.93;;;6.90;;
39022;SDS011;25908;51.984;5.928;2023-04-01T19:05:09;8.07;;;6.22;;
39022;SDS011;25908;51.984;5.928;2023-04-01T19:10:22;6.63;;;5.85;;
39022;SDS011;25908;51.984;5.928;2023-04-01T19:18:47;6.33;;;5.50;;
39022;SDS011;25908;51.984;5.928;2023-04-01T19:21:53;6.05;;;5.43;;
39022;SDS011;25908;51.984;5.928;2023-04-01T19:26:58;8.30;;;6.32;;
39022;SDS011;25908;51.984;5.928;2023-04-01T19:32:25;6.45;;;5.75;;
39022;SDS011;25908;51.984;5.928;2023-04-01T19:40:08;6.80;;;6.13;;
39022;SDS011;25908;51.984;5.928;2023-04-01T19:43:08;6.05;;;5.40;;
39022;SDS011;25908;51.984;5.928;2023-04-01T19:45:45;6.20;;;5.60;;
39022;SDS011;25908;51.984;5.928;2023-04-01T19:48:29;6.45;;;5.40;;
39022;SDS011;25908;51.984;5.928;2023-04-01T19:51:12;6.05;;;4.78;;
39022;SDS011;25908;51.984;5.928;2023-04-01T19:56:35;5.90;;;5.20;;
39022;SDS011;25908;51.984;5.928;2023-04-01T20:02:38;7.03;;;5.50;;
39022;SDS011;25908;51.984;5.928;2023-04-01T20:04:45;7.75;;;6.95;;
39022;SDS011;25908;51.984;5.928;2023-04-01T20:07:18;7.97;;;7.18;;
39022;SDS011;25908;51.984;5.928;2023-04-01T20:17:57;7.93;;;7.13;;
39022;SDS011;25908;51.984;5.928;2023-04-01T20:20:29;7.68;;;6.55;;
39022;SDS011;25908;51.984;5.928;2023-04-01T20:25:52;7.75;;;6.50;;
39022;SDS011;25908;51.984;5.928;2023-04-01T20:28:25;6.97;;;6.28;;
39022;SDS011;25908;51.984;5.928;2023-04-01T20:33:35;7.57;;;6.15;;
39022;SDS011;25908;51.984;5.928;2023-04-01T20:41:27;8.23;;;7.05;;
39022;SDS011;25908;51.984;5.928;2023-04-01T20:44:29;7.97;;;7.05;;
39022;SDS011;25908;51.984;5.928;2023-04-01T20:49:40;9.18;;;8.07;;
39022;SDS011;25908;51.984;5.928;2023-04-01T20:52:25;8.38;;;7.57;;
39022;SDS011;25908;51.984;5.928;2023-04-01T20:57:43;9.63;;;8.63;;
39022;SDS011;25908;51.984;5.928;2023-04-01T21:00:49;9.43;;;8.43;;
39022;SDS011;25908;51.984;5.928;2023-04-01T21:03:28;9.68;;;8.68;;
39022;SDS011;25908;51.984;5.928;2023-04-01T21:09:21;9.27;;;7.97;;
39022;SDS011;25908;51.984;5.928;2023-04-01T21:12:14;9.65;;;8.65;;
39022;SDS011;25908;51.984;5.928;2023-04-01T21:14:54;10.77;;;9.15;;
39022;SDS011;25908;51.984;5.928;2023-04-01T21:17:41;9.75;;;8.43;;
39022;SDS011;25908;51.984;5.928;2023-04-01T21:31:27;9.05;;;7.80;;
39022;SDS011;25908;51.984;5.928;2023-04-01T21:48:43;8.43;;;7.15;;
39022;SDS011;25908;51.984;5.928;2023-04-01T21:51:43;8.25;;;6.50;;
39022;SDS011;25908;51.984;5.928;2023-04-01T22:02:55;7.07;;;5.90;;
39022;SDS011;25908;51.984;5.928;2023-04-01T22:08:28;6.75;;;5.55;;
39022;SDS011;25908;51.984;5.928;2023-04-01T22:13:59;7.18;;;6.13;;
39022;SDS011;25908;51.984;5.928;2023-04-01T22:19:20;6.32;;;5.43;;
39022;SDS011;25908;51.984;5.928;2023-04-01T22:22:22;6.78;;;5.47;;
39022;SDS011;25908;51.984;5.928;2023-04-01T22:25:17;7.05;;;6.35;;
39022;SDS011;25908;51.984;5.928;2023-04-01T22:28:07;8.75;;;7.57;;
39022;SDS011;25908;51.984;5.928;2023-04-01T22:31:00;6.97;;;6.28;;
39022;SDS011;25908;51.984;5.928;2023-04-01T22:36:12;9.45;;;7.63;;
39022;SDS011;25908;51.984;5.928;2023-04-01T22:39:02;8.13;;;7.32;;
39022;SDS011;25908;51.984;5.928;2023-04-01T22:41:42;9.50;;;7.07;;
39022;SDS011;25908;51.984;5.928;2023-04-01T22:44:36;8.68;;;7.28;;
39022;SDS011;25908;51.984;5.928;2023-04-01T22:50:00;7.60;;;6.60;;
39022;SDS011;25908;51.984;5.928;2023-04-01T22:52:47;7.35;;;5.78;;
39022;SDS011;25908;51.984;5.928;2023-04-01T22:55:28;6.68;;;5.65;;
39022;SDS011;25908;51.984;5.928;2023-04-01T22:58:03;6.85;;;5.70;;
39022;SDS011;25908;51.984;5.928;2023-04-01T23:00:41;7.78;;;5.40;;
39022;SDS011;25908;51.984;5.928;2023-04-01T23:13:46;7.07;;;5.68;;
39022;SDS011;25908;51.984;5.928;2023-04-01T23:16:19;10.18;;;5.82;;
39022;SDS011;25908;51.984;5.928;2023-04-01T23:19:02;6.57;;;5.82;;
39022;SDS011;25908;51.984;5.928;2023-04-01T23:21:37;8.07;;;6.97;;
39022;SDS011;25908;51.984;5.928;2023-04-01T23:24:30;8.63;;;6.63;;
39022;SDS011;25908;51.984;5.928;2023-04-01T23:27:08;9.80;;;8.57;;
39022;SDS011;25908;51.984;5.928;2023-04-01T23:29:42;9.75;;;7.82;;
39022;SDS011;25908;51.984;5.928;2023-04-01T23:32:22;8.50;;;7.50;;
39022;SDS011;25908;51.984;5.928;2023-04-01T23:35:00;9.48;;;7.82;;
39022;SDS011;25908;51.984;5.928;2023-04-01T23:37:26;9.95;;;7.68;;
39022;SDS011;25908;51.984;5.928;2023-04-01T23:39:56;10.38;;;7.65;;
39022;SDS011;25908;51.984;5.928;2023-04-01T23:42:41;10.63;;;7.57;;
39022;SDS011;25908;51.984;5.928;2023-04-01T23:45:13;8.70;;;7.80;;
39022;SDS011;25908;51.984;5.928;2023-04-01T23:47:44;9.43;;;8.25;;
39022;SDS011;25908;51.984;5.928;2023-04-01T23:50:16;9.60;;;7.60;;
39022;SDS011;25908;51.984;5.928;2023-04-01T23:52:45;8.18;;;6.97;;
39022;SDS011;25908;51.984;5.928;2023-04-01T23:55:14;10.52;;;7.80;;
39022;SDS011;25908;51.984;5.928;2023-04-01T23:57:43;9.70;;;7.38;;
